sensor_id;sensor_type;location;lat;lon;timestamp;temperature;humidity
38860;DHT22;24609;48.316;16.174;2022-11-20T00:01:41;0.80;99.90
38860;DHT22;24609;48.316;16.174;2022-11-20T00:04:10;0.80;99.90
38860;DHT22;24609;48.316;16.174;2022-11-20T00:06:36;0.90;99.90
38860;DHT22;24609;48.316;16.174;2022-11-20T00:09:02;0.90;99.90
38860;DHT22;24609;48.316;16.174;2022-11-20T00:11:29;0.80;99.90
38860;DHT22;24609;48.316;16.174;2022-11-20T00:13:57;0.80;99.90
38860;DHT22;24609;48.316;16.174;2022-11-20T00:16:24;0.80;99.90
38860;DHT22;24609;48.316;16.174;2022-11-20T00:18:51;0.90;99.90
38860;DHT22;24609;48.316;16.174;2022-11-20T00:21:20;0.90;99.90
38860;DHT22;24609;48.316;16.174;2022-11-20T00:23:46;1.00;99.90
38860;DHT22;24609;48.316;16.174;2022-11-20T00:26:14;1.00;99.90
38860;DHT22;24609;48.316;16.174;2022-11-20T00:28:40;1.00;99.90
38860;DHT22;24609;48.316;16.174;2022-11-20T00:31:07;0.90;99.90
38860;DHT22;24609;48.316;16.174;2022-11-20T00:33:33;0.80;99.90
38860;DHT22;24609;48.316;16.174;2022-11-20T00:36:04;0.90;99.90
38860;DHT22;24609;48.316;16.174;2022-11-20T00:38:31;0.80;99.90
38860;DHT22;24609;48.316;16.174;2022-11-20T00:40:58;0.60;99.90
38860;DHT22;24609;48.316;16.174;2022-11-20T00:43:24;0.50;99.90
38860;DHT22;24609;48.316;16.174;2022-11-20T00:45:50;0.60;99.90
38860;DHT22;24609;48.316;16.174;2022-11-20T00:48:16;0.50;99.90
38860;DHT22;24609;48.316;16.174;2022-11-20T00:50:41;0.60;99.90
38860;DHT22;24609;48.316;16.174;2022-11-20T00:53:07;0.60;99.90
38860;DHT22;24609;48.316;16.174;2022-11-20T00:55:33;0.50;99.90
38860;DHT22;24609;48.316;16.174;2022-11-20T00:57:58;0.60;99.90
38860;DHT22;24609;48.316;16.174;2022-11-20T01:00:24;0.60;99.90
38860;DHT22;24609;48.316;16.174;2022-11-20T01:02:50;0.60;99.90
38860;DHT22;24609;48.316;16.174;2022-11-20T01:05:15;0.60;99.90
38860;DHT22;24609;48.316;16.174;2022-11-20T01:07:41;0.70;99.90
38860;DHT22;24609;48.316;16.174;2022-11-20T01:10:07;0.70;99.90
38860;DHT22;24609;48.316;16.174;2022-11-20T01:12:33;0.70;99.90
38860;DHT22;24609;48.316;16.174;2022-11-20T01:14:58;0.70;99.90
38860;DHT22;24609;48.316;16.174;2022-11-20T01:17:24;0.70;99.90
38860;DHT22;24609;48.316;16.174;2022-11-20T01:19:50;0.70;99.90
38860;DHT22;24609;48.316;16.174;2022-11-20T01:22:16;0.70;99.90
38860;DHT22;24609;48.316;16.174;2022-11-20T01:24:42;0.60;99.90
38860;DHT22;24609;48.316;16.174;2022-11-20T01:27:07;0.60;99.90
38860;DHT22;24609;48.316;16.174;2022-11-20T01:29:33;0.60;99.90
38860;DHT22;24609;48.316;16.174;2022-11-20T01:31:58;0.70;99.90
38860;DHT22;24609;48.316;16.174;2022-11-20T01:34:24;0.70;99.90
38860;DHT22;24609;48.316;16.174;2022-11-20T01:36:51;0.70;99.90
38860;DHT22;24609;48.316;16.174;2022-11-20T01:39:19;0.70;99.90
38860;DHT22;24609;48.316;16.174;2022-11-20T01:41:46;0.70;99.90
38860;DHT22;24609;48.316;16.174;2022-11-20T01:45:42;0.70;99.90
38860;DHT22;24609;48.316;16.174;2022-11-20T01:47:49;0.60;99.90
38860;DHT22;24609;48.316;16.174;2022-11-20T01:50:21;0.70;99.90
38860;DHT22;24609;48.316;16.174;2022-11-20T01:52:54;0.70;99.90
38860;DHT22;24609;48.316;16.174;2022-11-20T01:55:28;0.70;99.90
38860;DHT22;24609;48.316;16.174;2022-11-20T01:57:54;0.70;99.90
38860;DHT22;24609;48.316;16.174;2022-11-20T02:00:20;0.80;99.90
38860;DHT22;24609;48.316;16.174;2022-11-20T02:03:00;0.80;99.90
38860;DHT22;24609;48.316;16.174;2022-11-20T02:08:00;0.80;99.90
38860;DHT22;24609;48.316;16.174;2022-11-20T02:10:28;0.80;99.90
38860;DHT22;24609;48.316;16.174;2022-11-20T02:12:54;0.90;99.90
38860;DHT22;24609;48.316;16.174;2022-11-20T02:15:39;0.80;99.90
38860;DHT22;24609;48.316;16.174;2022-11-20T02:18:05;0.80;99.90
38860;DHT22;24609;48.316;16.174;2022-11-20T02:20:32;0.80;99.90
38860;DHT22;24609;48.316;16.174;2022-11-20T02:23:10;0.80;99.90
38860;DHT22;24609;48.316;16.174;2022-11-20T02:25:38;0.80;99.90
38860;DHT22;24609;48.316;16.174;2022-11-20T02:28:06;0.90;99.90
38860;DHT22;24609;48.316;16.174;2022-11-20T02:30:31;0.90;99.90
38860;DHT22;24609;48.316;16.174;2022-11-20T02:32:57;0.90;99.90
38860;DHT22;24609;48.316;16.174;2022-11-20T02:37:52;0.90;99.90
38860;DHT22;24609;48.316;16.174;2022-11-20T02:40:19;0.90;99.90
38860;DHT22;24609;48.316;16.174;2022-11-20T02:42:44;0.90;99.90
38860;DHT22;24609;48.316;16.174;2022-11-20T02:45:10;0.80;99.90
38860;DHT22;24609;48.316;16.174;2022-11-20T02:47:36;0.80;99.90
38860;DHT22;24609;48.316;16.174;2022-11-20T02:50:01;0.80;99.90
38860;DHT22;24609;48.316;16.174;2022-11-20T02:52:27;0.80;99.90
38860;DHT22;24609;48.316;16.174;2022-11-20T02:54:53;0.90;99.90
38860;DHT22;24609;48.316;16.174;2022-11-20T02:57:19;0.90;99.90
38860;DHT22;24609;48.316;16.174;2022-11-20T02:59:44;0.90;99.90
38860;DHT22;24609;48.316;16.174;2022-11-20T03:02:10;0.90;99.90
38860;DHT22;24609;48.316;16.174;2022-11-20T03:04:36;0.90;99.90
38860;DHT22;24609;48.316;16.174;2022-11-20T03:07:02;0.90;99.90
38860;DHT22;24609;48.316;16.174;2022-11-20T03:09:28;1.00;99.90
38860;DHT22;24609;48.316;16.174;2022-11-20T03:11:53;1.10;99.90
38860;DHT22;24609;48.316;16.174;2022-11-20T03:14:19;1.10;99.90
38860;DHT22;24609;48.316;16.174;2022-11-20T03:16:45;1.10;99.90
38860;DHT22;24609;48.316;16.174;2022-11-20T03:19:11;1.20;99.90
38860;DHT22;24609;48.316;16.174;2022-11-20T03:21:37;1.20;99.90
38860;DHT22;24609;48.316;16.174;2022-11-20T03:24:03;1.30;99.90
38860;DHT22;24609;48.316;16.174;2022-11-20T03:26:29;1.30;99.90
38860;DHT22;24609;48.316;16.174;2022-11-20T03:28:57;1.30;99.90
38860;DHT22;24609;48.316;16.174;2022-11-20T03:31:31;1.30;99.90
38860;DHT22;24609;48.316;16.174;2022-11-20T03:33:58;1.30;99.90
38860;DHT22;24609;48.316;16.174;2022-11-20T03:36:25;1.30;99.90
38860;DHT22;24609;48.316;16.174;2022-11-20T03:38:52;1.30;99.90
38860;DHT22;24609;48.316;16.174;2022-11-20T03:41:26;1.30;99.90
38860;DHT22;24609;48.316;16.174;2022-11-20T03:43:53;1.30;99.90
38860;DHT22;24609;48.316;16.174;2022-11-20T03:46:20;1.30;99.90
38860;DHT22;24609;48.316;16.174;2022-11-20T03:48:46;1.30;99.90
38860;DHT22;24609;48.316;16.174;2022-11-20T03:51:23;1.40;99.90
38860;DHT22;24609;48.316;16.174;2022-11-20T03:53:52;1.50;99.90
38860;DHT22;24609;48.316;16.174;2022-11-20T03:56:20;1.40;99.90
38860;DHT22;24609;48.316;16.174;2022-11-20T03:58:48;1.40;99.90
38860;DHT22;24609;48.316;16.174;2022-11-20T04:01:19;1.40;99.90
38860;DHT22;24609;48.316;16.174;2022-11-20T04:03:45;1.40;99.90
38860;DHT22;24609;48.316;16.174;2022-11-20T04:06:16;1.40;99.90
38860;DHT22;24609;48.316;16.174;2022-11-20T04:08:42;1.40;99.90
38860;DHT22;24609;48.316;16.174;2022-11-20T04:11:19;1.30;99.90
38860;DHT22;24609;48.316;16.174;2022-11-20T04:13:48;1.40;99.90
38860;DHT22;24609;48.316;16.174;2022-11-20T04:16:14;1.40;99.90
38860;DHT22;24609;48.316;16.174;2022-11-20T04:18:40;1.40;99.90
38860;DHT22;24609;48.316;16.174;2022-11-20T04:21:06;1.40;99.90
38860;DHT22;24609;48.316;16.174;2022-11-20T04:23:32;1.50;99.90
38860;DHT22;24609;48.316;16.174;2022-11-20T04:26:09;1.40;99.90
38860;DHT22;24609;48.316;16.174;2022-11-20T04:28:36;1.40;99.90
38860;DHT22;24609;48.316;16.174;2022-11-20T04:33:28;1.20;99.90
38860;DHT22;24609;48.316;16.174;2022-11-20T04:35:54;1.20;99.90
38860;DHT22;24609;48.316;16.174;2022-11-20T04:38:20;1.20;99.90
38860;DHT22;24609;48.316;16.174;2022-11-20T04:40:45;1.30;99.90
38860;DHT22;24609;48.316;16.174;2022-11-20T04:43:11;1.30;99.90
38860;DHT22;24609;48.316;16.174;2022-11-20T04:45:36;1.30;99.90
38860;DHT22;24609;48.316;16.174;2022-11-20T04:48:02;1.30;99.90
38860;DHT22;24609;48.316;16.174;2022-11-20T04:50:28;1.30;99.90
38860;DHT22;24609;48.316;16.174;2022-11-20T04:52:53;1.30;99.90
38860;DHT22;24609;48.316;16.174;2022-11-20T04:55:19;1.30;99.90
38860;DHT22;24609;48.316;16.174;2022-11-20T04:57:44;1.30;99.90
38860;DHT22;24609;48.316;16.174;2022-11-20T05:00:11;1.20;99.90
38860;DHT22;24609;48.316;16.174;2022-11-20T05:02:36;1.10;99.90
38860;DHT22;24609;48.316;16.174;2022-11-20T05:05:02;1.20;99.90
38860;DHT22;24609;48.316;16.174;2022-11-20T05:07:28;1.20;99.90
38860;DHT22;24609;48.316;16.174;2022-11-20T05:09:53;1.20;99.90
38860;DHT22;24609;48.316;16.174;2022-11-20T05:12:19;1.30;99.90
38860;DHT22;24609;48.316;16.174;2022-11-20T05:14:45;1.30;99.90
38860;DHT22;24609;48.316;16.174;2022-11-20T05:17:11;1.30;99.90
38860;DHT22;24609;48.316;16.174;2022-11-20T05:19:37;1.40;99.90
38860;DHT22;24609;48.316;16.174;2022-11-20T05:22:04;1.40;99.90
38860;DHT22;24609;48.316;16.174;2022-11-20T05:24:30;1.40;99.90
38860;DHT22;24609;48.316;16.174;2022-11-20T05:26:56;1.40;99.90
38860;DHT22;24609;48.316;16.174;2022-11-20T05:29:21;1.40;99.90
38860;DHT22;24609;48.316;16.174;2022-11-20T05:31:47;1.40;99.90
38860;DHT22;24609;48.316;16.174;2022-11-20T05:34:13;1.30;99.90
38860;DHT22;24609;48.316;16.174;2022-11-20T05:36:38;1.20;99.90
38860;DHT22;24609;48.316;16.174;2022-11-20T05:39:04;1.20;99.90
38860;DHT22;24609;48.316;16.174;2022-11-20T05:41:30;1.10;99.90
38860;DHT22;24609;48.316;16.174;2022-11-20T05:43:56;1.10;99.90
38860;DHT22;24609;48.316;16.174;2022-11-20T05:46:22;1.10;99.90
38860;DHT22;24609;48.316;16.174;2022-11-20T05:48:47;1.10;99.90
38860;DHT22;24609;48.316;16.174;2022-11-20T05:51:15;1.00;99.90
38860;DHT22;24609;48.316;16.174;2022-11-20T05:53:41;1.00;99.90
38860;DHT22;24609;48.316;16.174;2022-11-20T05:56:10;1.00;99.90
38860;DHT22;24609;48.316;16.174;2022-11-20T05:58:37;1.00;99.90
38860;DHT22;24609;48.316;16.174;2022-11-20T06:01:14;1.00;99.90
38860;DHT22;24609;48.316;16.174;2022-11-20T06:03:41;1.00;99.90
38860;DHT22;24609;48.316;16.174;2022-11-20T06:06:08;1.00;99.90
38860;DHT22;24609;48.316;16.174;2022-11-20T06:08:34;1.00;99.90
38860;DHT22;24609;48.316;16.174;2022-11-20T06:11:10;1.00;99.90
38860;DHT22;24609;48.316;16.174;2022-11-20T06:13:36;1.00;99.90
38860;DHT22;24609;48.316;16.174;2022-11-20T06:16:03;1.00;99.90
38860;DHT22;24609;48.316;16.174;2022-11-20T06:18:29;0.90;99.90
38860;DHT22;24609;48.316;16.174;2022-11-20T06:21:07;1.00;99.90
38860;DHT22;24609;48.316;16.174;2022-11-20T06:23:34;1.00;99.90
38860;DHT22;24609;48.316;16.174;2022-11-20T06:26:05;1.00;99.90
38860;DHT22;24609;48.316;16.174;2022-11-20T06:28:31;1.00;99.90
38860;DHT22;24609;48.316;16.174;2022-11-20T06:30:57;1.10;99.90
38860;DHT22;24609;48.316;16.174;2022-11-20T06:33:23;1.10;99.90
38860;DHT22;24609;48.316;16.174;2022-11-20T06:35:49;1.20;99.90
38860;DHT22;24609;48.316;16.174;2022-11-20T06:38:14;1.20;99.90
38860;DHT22;24609;48.316;16.174;2022-11-20T06:40:41;1.20;99.90
38860;DHT22;24609;48.316;16.174;2022-11-20T06:43:08;1.20;99.90
38860;DHT22;24609;48.316;16.174;2022-11-20T06:45:33;1.20;99.90
38860;DHT22;24609;48.316;16.174;2022-11-20T06:47:59;1.20;99.90
38860;DHT22;24609;48.316;16.174;2022-11-20T06:50:25;1.30;99.90
38860;DHT22;24609;48.316;16.174;2022-11-20T06:52:50;1.20;99.90
38860;DHT22;24609;48.316;16.174;2022-11-20T06:55:16;1.20;99.90
38860;DHT22;24609;48.316;16.174;2022-11-20T06:57:41;1.10;99.90
38860;DHT22;24609;48.316;16.174;2022-11-20T07:00:08;1.20;99.90
38860;DHT22;24609;48.316;16.174;2022-11-20T07:02:33;1.30;99.90
38860;DHT22;24609;48.316;16.174;2022-11-20T07:04:59;1.30;99.90
38860;DHT22;24609;48.316;16.174;2022-11-20T07:07:25;1.30;99.90
38860;DHT22;24609;48.316;16.174;2022-11-20T07:09:50;1.30;99.90
38860;DHT22;24609;48.316;16.174;2022-11-20T07:12:16;1.30;99.90
38860;DHT22;24609;48.316;16.174;2022-11-20T07:14:41;1.40;99.90
38860;DHT22;24609;48.316;16.174;2022-11-20T07:17:07;1.50;99.90
38860;DHT22;24609;48.316;16.174;2022-11-20T07:19:33;1.40;99.90
38860;DHT22;24609;48.316;16.174;2022-11-20T07:21:59;1.50;99.90
38860;DHT22;24609;48.316;16.174;2022-11-20T07:24:24;1.50;99.90
38860;DHT22;24609;48.316;16.174;2022-11-20T07:26:50;1.50;99.90
38860;DHT22;24609;48.316;16.174;2022-11-20T07:29:16;1.50;99.90
38860;DHT22;24609;48.316;16.174;2022-11-20T07:31:42;1.60;99.90
38860;DHT22;24609;48.316;16.174;2022-11-20T07:34:08;1.60;99.90
38860;DHT22;24609;48.316;16.174;2022-11-20T07:36:34;1.50;99.90
38860;DHT22;24609;48.316;16.174;2022-11-20T07:39:00;1.30;99.90
38860;DHT22;24609;48.316;16.174;2022-11-20T07:41:25;1.30;99.90
38860;DHT22;24609;48.316;16.174;2022-11-20T07:43:51;1.40;99.90
38860;DHT22;24609;48.316;16.174;2022-11-20T07:46:17;1.50;99.90
38860;DHT22;24609;48.316;16.174;2022-11-20T07:48:42;1.60;99.90
38860;DHT22;24609;48.316;16.174;2022-11-20T07:51:08;1.60;99.90
38860;DHT22;24609;48.316;16.174;2022-11-20T07:53:34;1.60;99.90
38860;DHT22;24609;48.316;16.174;2022-11-20T07:56:00;1.70;99.90
38860;DHT22;24609;48.316;16.174;2022-11-20T07:58:28;1.90;99.90
38860;DHT22;24609;48.316;16.174;2022-11-20T08:00:54;2.00;99.90
38860;DHT22;24609;48.316;16.174;2022-11-20T08:03:19;1.90;99.90
38860;DHT22;24609;48.316;16.174;2022-11-20T08:05:45;1.90;99.90
38860;DHT22;24609;48.316;16.174;2022-11-20T08:08:10;2.00;99.90
38860;DHT22;24609;48.316;16.174;2022-11-20T08:10:37;2.10;99.90
38860;DHT22;24609;48.316;16.174;2022-11-20T08:13:03;2.10;99.90
38860;DHT22;24609;48.316;16.174;2022-11-20T08:15:49;2.40;99.90
38860;DHT22;24609;48.316;16.174;2022-11-20T08:18:16;2.30;99.90
38860;DHT22;24609;48.316;16.174;2022-11-20T08:20:43;2.60;99.90
38860;DHT22;24609;48.316;16.174;2022-11-20T08:23:09;2.80;99.90
38860;DHT22;24609;48.316;16.174;2022-11-20T08:25:36;2.90;99.90
38860;DHT22;24609;48.316;16.174;2022-11-20T08:28:05;3.00;99.90
38860;DHT22;24609;48.316;16.174;2022-11-20T08:30:31;3.00;99.90
38860;DHT22;24609;48.316;16.174;2022-11-20T08:33:02;2.90;99.90
38860;DHT22;24609;48.316;16.174;2022-11-20T08:35:28;2.70;99.90
38860;DHT22;24609;48.316;16.174;2022-11-20T08:37:54;2.70;99.90
38860;DHT22;24609;48.316;16.174;2022-11-20T08:40:19;2.80;99.90
38860;DHT22;24609;48.316;16.174;2022-11-20T08:42:49;2.70;99.90
38860;DHT22;24609;48.316;16.174;2022-11-20T08:45:15;2.60;99.90
38860;DHT22;24609;48.316;16.174;2022-11-20T08:47:42;2.60;99.90
38860;DHT22;24609;48.316;16.174;2022-11-20T08:50:09;2.50;99.90
38860;DHT22;24609;48.316;16.174;2022-11-20T08:52:35;2.30;99.90
38860;DHT22;24609;48.316;16.174;2022-11-20T08:55:00;2.30;99.90
38860;DHT22;24609;48.316;16.174;2022-11-20T08:57:26;2.30;99.90
38860;DHT22;24609;48.316;16.174;2022-11-20T08:59:52;2.30;99.90
38860;DHT22;24609;48.316;16.174;2022-11-20T09:02:17;2.20;99.90
38860;DHT22;24609;48.316;16.174;2022-11-20T09:04:43;2.20;99.90
38860;DHT22;24609;48.316;16.174;2022-11-20T09:07:09;2.30;99.90
38860;DHT22;24609;48.316;16.174;2022-11-20T09:09:34;2.40;99.90
38860;DHT22;24609;48.316;16.174;2022-11-20T09:12:00;2.30;99.90
38860;DHT22;24609;48.316;16.174;2022-11-20T09:14:26;2.40;99.90
38860;DHT22;24609;48.316;16.174;2022-11-20T09:16:55;2.50;99.90
38860;DHT22;24609;48.316;16.174;2022-11-20T09:19:21;2.60;99.90
38860;DHT22;24609;48.316;16.174;2022-11-20T09:21:46;2.60;99.90
38860;DHT22;24609;48.316;16.174;2022-11-20T09:24:12;2.70;99.90
38860;DHT22;24609;48.316;16.174;2022-11-20T09:26:38;2.80;99.90
38860;DHT22;24609;48.316;16.174;2022-11-20T09:29:03;2.90;99.90
38860;DHT22;24609;48.316;16.174;2022-11-20T09:31:29;2.70;99.90
38860;DHT22;24609;48.316;16.174;2022-11-20T09:33:55;2.60;99.90
38860;DHT22;24609;48.316;16.174;2022-11-20T09:36:20;2.90;99.90
38860;DHT22;24609;48.316;16.174;2022-11-20T09:38:46;3.30;99.90
38860;DHT22;24609;48.316;16.174;2022-11-20T09:47:09;3.60;99.90
38860;DHT22;24609;48.316;16.174;2022-11-20T09:52:38;3.60;99.90
38860;DHT22;24609;48.316;16.174;2022-11-20T09:55:10;3.80;99.90
38860;DHT22;24609;48.316;16.174;2022-11-20T09:57:40;4.10;99.90
38860;DHT22;24609;48.316;16.174;2022-11-20T10:00:11;4.30;99.90
38860;DHT22;24609;48.316;16.174;2022-11-20T10:05:44;4.40;99.90
38860;DHT22;24609;48.316;16.174;2022-11-20T10:08:20;4.20;99.90
38860;DHT22;24609;48.316;16.174;2022-11-20T10:10:52;4.10;99.90
38860;DHT22;24609;48.316;16.174;2022-11-20T10:19:07;4.50;99.90
38860;DHT22;24609;48.316;16.174;2022-11-20T10:24:37;4.50;99.90
38860;DHT22;24609;48.316;16.174;2022-11-20T10:29:45;4.70;99.90
38860;DHT22;24609;48.316;16.174;2022-11-20T10:32:23;4.50;99.90
38860;DHT22;24609;48.316;16.174;2022-11-20T10:35:06;4.50;99.90
38860;DHT22;24609;48.316;16.174;2022-11-20T10:37:37;4.00;99.90
38860;DHT22;24609;48.316;16.174;2022-11-20T10:40:54;3.90;99.90
38860;DHT22;24609;48.316;16.174;2022-11-20T10:42:57;4.00;99.90
38860;DHT22;24609;48.316;16.174;2022-11-20T10:47:54;4.20;99.90
38860;DHT22;24609;48.316;16.174;2022-11-20T10:50:22;4.60;99.90
38860;DHT22;24609;48.316;16.174;2022-11-20T10:55:55;5.40;99.90
38860;DHT22;24609;48.316;16.174;2022-11-20T10:58:44;5.60;99.90
38860;DHT22;24609;48.316;16.174;2022-11-20T11:01:16;5.40;99.90
38860;DHT22;24609;48.316;16.174;2022-11-20T11:03:42;5.40;99.90
38860;DHT22;24609;48.316;16.174;2022-11-20T11:06:32;5.50;99.90
38860;DHT22;24609;48.316;16.174;2022-11-20T11:09:04;5.50;99.90
38860;DHT22;24609;48.316;16.174;2022-11-20T11:11:34;5.70;99.90
38860;DHT22;24609;48.316;16.174;2022-11-20T11:14:13;5.80;99.90
38860;DHT22;24609;48.316;16.174;2022-11-20T11:16:53;5.10;99.90
38860;DHT22;24609;48.316;16.174;2022-11-20T11:19:20;5.40;99.90
38860;DHT22;24609;48.316;16.174;2022-11-20T11:21:54;5.70;99.90
38860;DHT22;24609;48.316;16.174;2022-11-20T11:24:25;6.10;99.90
38860;DHT22;24609;48.316;16.174;2022-11-20T11:27:12;6.30;99.90
38860;DHT22;24609;48.316;16.174;2022-11-20T11:29:38;6.20;99.90
38860;DHT22;24609;48.316;16.174;2022-11-20T11:34:33;5.90;99.90
38860;DHT22;24609;48.316;16.174;2022-11-20T11:37:00;6.00;99.90
38860;DHT22;24609;48.316;16.174;2022-11-20T11:39:30;6.50;99.90
38860;DHT22;24609;48.316;16.174;2022-11-20T11:41:57;7.60;99.90
38860;DHT22;24609;48.316;16.174;2022-11-20T11:44:34;8.30;99.90
38860;DHT22;24609;48.316;16.174;2022-11-20T11:47:25;7.80;99.90
38860;DHT22;24609;48.316;16.174;2022-11-20T11:58:21;8.80;99.90
38860;DHT22;24609;48.316;16.174;2022-11-20T12:01:02;9.70;99.90
38860;DHT22;24609;48.316;16.174;2022-11-20T12:03:37;9.90;99.90
38860;DHT22;24609;48.316;16.174;2022-11-20T12:06:16;9.70;99.90
38860;DHT22;24609;48.316;16.174;2022-11-20T12:09:03;8.50;99.90
38860;DHT22;24609;48.316;16.174;2022-11-20T12:16:37;7.50;99.90
38860;DHT22;24609;48.316;16.174;2022-11-20T12:19:12;7.30;99.90
38860;DHT22;24609;48.316;16.174;2022-11-20T12:24:33;7.20;99.90
38860;DHT22;24609;48.316;16.174;2022-11-20T12:43:22;7.20;99.90
38860;DHT22;24609;48.316;16.174;2022-11-20T12:46:35;7.90;99.90
38860;DHT22;24609;48.316;16.174;2022-11-20T12:54:50;8.30;99.90
38860;DHT22;24609;48.316;16.174;2022-11-20T12:57:29;7.80;99.90
38860;DHT22;24609;48.316;16.174;2022-11-20T13:00:14;7.50;99.90
38860;DHT22;24609;48.316;16.174;2022-11-20T13:05:31;7.50;99.90
38860;DHT22;24609;48.316;16.174;2022-11-20T13:08:02;7.80;99.90
38860;DHT22;24609;48.316;16.174;2022-11-20T13:11:02;8.00;99.90
38860;DHT22;24609;48.316;16.174;2022-11-20T13:16:59;8.10;99.90
38860;DHT22;24609;48.316;16.174;2022-11-20T13:19:26;8.20;99.90
38860;DHT22;24609;48.316;16.174;2022-11-20T13:21:54;8.20;99.90
38860;DHT22;24609;48.316;16.174;2022-11-20T13:26:46;8.20;99.90
38860;DHT22;24609;48.316;16.174;2022-11-20T13:29:19;8.40;99.90
38860;DHT22;24609;48.316;16.174;2022-11-20T13:31:46;8.60;99.90
38860;DHT22;24609;48.316;16.174;2022-11-20T13:34:22;8.50;99.90
38860;DHT22;24609;48.316;16.174;2022-11-20T13:36:54;8.00;99.90
38860;DHT22;24609;48.316;16.174;2022-11-20T13:39:32;7.90;99.90
38860;DHT22;24609;48.316;16.174;2022-11-20T13:44:53;8.10;99.90
38860;DHT22;24609;48.316;16.174;2022-11-20T13:47:23;8.10;99.90
38860;DHT22;24609;48.316;16.174;2022-11-20T13:49:51;8.00;99.90
38860;DHT22;24609;48.316;16.174;2022-11-20T13:52:39;7.70;99.90
38860;DHT22;24609;48.316;16.174;2022-11-20T14:01:11;7.40;99.90
38860;DHT22;24609;48.316;16.174;2022-11-20T14:03:40;7.30;99.90
38860;DHT22;24609;48.316;16.174;2022-11-20T14:06:16;7.30;99.90
38860;DHT22;24609;48.316;16.174;2022-11-20T14:08:48;7.30;99.90
38860;DHT22;24609;48.316;16.174;2022-11-20T14:11:17;7.30;99.90
38860;DHT22;24609;48.316;16.174;2022-11-20T14:14:13;7.40;99.90
38860;DHT22;24609;48.316;16.174;2022-11-20T14:16:40;7.40;99.90
38860;DHT22;24609;48.316;16.174;2022-11-20T14:19:35;7.40;99.90
38860;DHT22;24609;48.316;16.174;2022-11-20T14:22:23;7.40;99.90
38860;DHT22;24609;48.316;16.174;2022-11-20T14:27:39;7.40;99.90
38860;DHT22;24609;48.316;16.174;2022-11-20T14:30:16;7.30;99.90
38860;DHT22;24609;48.316;16.174;2022-11-20T14:32:43;7.00;99.90
38860;DHT22;24609;48.316;16.174;2022-11-20T14:35:14;6.80;99.90
38860;DHT22;24609;48.316;16.174;2022-11-20T14:37:44;6.50;99.90
38860;DHT22;24609;48.316;16.174;2022-11-20T14:42:49;6.10;99.90
38860;DHT22;24609;48.316;16.174;2022-11-20T14:45:15;6.00;99.90
38860;DHT22;24609;48.316;16.174;2022-11-20T14:47:41;5.80;99.90
38860;DHT22;24609;48.316;16.174;2022-11-20T14:50:23;5.70;99.90
38860;DHT22;24609;48.316;16.174;2022-11-20T14:52:53;5.60;99.90
38860;DHT22;24609;48.316;16.174;2022-11-20T14:55:30;5.40;99.90
38860;DHT22;24609;48.316;16.174;2022-11-20T14:58:05;5.30;99.90
38860;DHT22;24609;48.316;16.174;2022-11-20T15:00:33;5.30;99.90
38860;DHT22;24609;48.316;16.174;2022-11-20T15:03:00;5.40;99.90
38860;DHT22;24609;48.316;16.174;2022-11-20T15:05:48;5.60;99.90
38860;DHT22;24609;48.316;16.174;2022-11-20T15:08:15;5.70;99.90
38860;DHT22;24609;48.316;16.174;2022-11-20T15:10:49;5.70;99.90
38860;DHT22;24609;48.316;16.174;2022-11-20T15:13:36;5.70;99.90
38860;DHT22;24609;48.316;16.174;2022-11-20T15:16:17;5.50;99.90
38860;DHT22;24609;48.316;16.174;2022-11-20T15:18:43;5.50;99.90
38860;DHT22;24609;48.316;16.174;2022-11-20T15:21:14;5.30;99.90
38860;DHT22;24609;48.316;16.174;2022-11-20T15:23:41;5.20;99.90
38860;DHT22;24609;48.316;16.174;2022-11-20T15:26:08;5.00;99.90
38860;DHT22;24609;48.316;16.174;2022-11-20T15:31:03;4.90;99.90
38860;DHT22;24609;48.316;16.174;2022-11-20T15:33:29;4.70;99.90
38860;DHT22;24609;48.316;16.174;2022-11-20T15:35:55;4.70;99.90
38860;DHT22;24609;48.316;16.174;2022-11-20T15:38:21;4.80;99.90
38860;DHT22;24609;48.316;16.174;2022-11-20T15:40:47;4.70;99.90
38860;DHT22;24609;48.316;16.174;2022-11-20T15:43:13;4.70;99.90
38860;DHT22;24609;48.316;16.174;2022-11-20T15:45:50;4.60;99.90
38860;DHT22;24609;48.316;16.174;2022-11-20T15:48:28;4.40;99.90
38860;DHT22;24609;48.316;16.174;2022-11-20T15:53:43;4.20;99.90
38860;DHT22;24609;48.316;16.174;2022-11-20T15:56:11;3.90;99.90
38860;DHT22;24609;48.316;16.174;2022-11-20T15:58:38;3.80;99.90
38860;DHT22;24609;48.316;16.174;2022-11-20T16:01:04;3.70;99.90
38860;DHT22;24609;48.316;16.174;2022-11-20T16:03:29;3.60;99.90
38860;DHT22;24609;48.316;16.174;2022-11-20T16:05:55;3.50;99.90
38860;DHT22;24609;48.316;16.174;2022-11-20T16:08:21;3.50;99.90
38860;DHT22;24609;48.316;16.174;2022-11-20T16:10:46;3.60;99.90
38860;DHT22;24609;48.316;16.174;2022-11-20T16:13:17;3.60;99.90
38860;DHT22;24609;48.316;16.174;2022-11-20T16:16:04;3.60;99.90
38860;DHT22;24609;48.316;16.174;2022-11-20T16:18:31;3.60;99.90
38860;DHT22;24609;48.316;16.174;2022-11-20T16:20:57;3.70;99.90
38860;DHT22;24609;48.316;16.174;2022-11-20T16:23:23;3.70;99.90
38860;DHT22;24609;48.316;16.174;2022-11-20T16:25:49;3.70;99.90
38860;DHT22;24609;48.316;16.174;2022-11-20T16:28:16;3.70;99.90
38860;DHT22;24609;48.316;16.174;2022-11-20T16:30:42;3.80;99.90
38860;DHT22;24609;48.316;16.174;2022-11-20T16:33:12;3.80;99.90
38860;DHT22;24609;48.316;16.174;2022-11-20T16:35:38;3.80;99.90
38860;DHT22;24609;48.316;16.174;2022-11-20T16:38:04;3.70;99.90
38860;DHT22;24609;48.316;16.174;2022-11-20T16:40:29;3.60;99.90
38860;DHT22;24609;48.316;16.174;2022-11-20T16:42:55;3.50;99.90
38860;DHT22;24609;48.316;16.174;2022-11-20T16:45:22;3.40;99.90
38860;DHT22;24609;48.316;16.174;2022-11-20T16:47:48;3.40;99.90
38860;DHT22;24609;48.316;16.174;2022-11-20T16:50:14;3.30;99.90
38860;DHT22;24609;48.316;16.174;2022-11-20T16:52:39;3.30;99.90
38860;DHT22;24609;48.316;16.174;2022-11-20T16:55:05;3.20;99.90
38860;DHT22;24609;48.316;16.174;2022-11-20T16:57:31;3.20;99.90
38860;DHT22;24609;48.316;16.174;2022-11-20T16:59:58;3.30;99.90
38860;DHT22;24609;48.316;16.174;2022-11-20T17:02:25;3.30;99.90
38860;DHT22;24609;48.316;16.174;2022-11-20T17:04:51;3.40;99.90
38860;DHT22;24609;48.316;16.174;2022-11-20T17:07:17;3.50;99.90
38860;DHT22;24609;48.316;16.174;2022-11-20T17:09:43;3.60;99.90
38860;DHT22;24609;48.316;16.174;2022-11-20T17:12:09;3.70;99.90
38860;DHT22;24609;48.316;16.174;2022-11-20T17:14:35;3.70;99.90
38860;DHT22;24609;48.316;16.174;2022-11-20T17:17:00;3.80;99.90
38860;DHT22;24609;48.316;16.174;2022-11-20T17:19:26;3.80;99.90
38860;DHT22;24609;48.316;16.174;2022-11-20T17:21:52;3.90;99.90
38860;DHT22;24609;48.316;16.174;2022-11-20T17:24:18;3.90;99.90
38860;DHT22;24609;48.316;16.174;2022-11-20T17:26:44;4.00;99.90